sensor_id;sensor_type;location;lat;lon;timestamp;P1;durP1;ratioP1;P2;durP2;ratioP2
59169;SDS011;52474;52.236;5.114;2022-07-29T00:00:00;3.00;;;1.38;;
59169;SDS011;52474;52.236;5.114;2022-07-29T00:02:26;2.08;;;1.30;;
59169;SDS011;52474;52.236;5.114;2022-07-29T00:04:52;3.67;;;1.40;;
59169;SDS011;52474;52.236;5.114;2022-07-29T00:07:18;5.63;;;1.90;;
59169;SDS011;52474;52.236;5.114;2022-07-29T00:09:44;3.38;;;1.27;;
59169;SDS011;52474;52.236;5.114;2022-07-29T00:12:10;3.80;;;1.38;;
59169;SDS011;52474;52.236;5.114;2022-07-29T00:14:35;4.90;;;1.40;;
59169;SDS011;52474;52.236;5.114;2022-07-29T00:17:01;2.63;;;1.30;;
59169;SDS011;52474;52.236;5.114;2022-07-29T00:19:27;4.55;;;1.50;;
59169;SDS011;52474;52.236;5.114;2022-07-29T00:21:52;1.80;;;1.48;;
59169;SDS011;52474;52.236;5.114;2022-07-29T00:24:18;3.85;;;1.45;;
59169;SDS011;52474;52.236;5.114;2022-07-29T00:26:44;4.75;;;1.20;;
59169;SDS011;52474;52.236;5.114;2022-07-29T00:29:09;1.38;;;1.10;;
59169;SDS011;52474;52.236;5.114;2022-07-29T00:31:35;3.17;;;1.08;;
59169;SDS011;52474;52.236;5.114;2022-07-29T00:34:01;2.85;;;1.13;;
59169;SDS011;52474;52.236;5.114;2022-07-29T00:36:27;4.05;;;1.60;;
59169;SDS011;52474;52.236;5.114;2022-07-29T00:38:53;3.90;;;1.30;;
59169;SDS011;52474;52.236;5.114;2022-07-29T00:41:19;4.40;;;1.63;;
59169;SDS011;52474;52.236;5.114;2022-07-29T00:43:45;4.43;;;1.35;;
59169;SDS011;52474;52.236;5.114;2022-07-29T00:46:11;4.50;;;1.40;;
59169;SDS011;52474;52.236;5.114;2022-07-29T00:48:36;4.30;;;1.48;;
59169;SDS011;52474;52.236;5.114;2022-07-29T00:51:04;3.05;;;1.48;;
59169;SDS011;52474;52.236;5.114;2022-07-29T00:53:31;2.72;;;1.17;;
59169;SDS011;52474;52.236;5.114;2022-07-29T00:55:57;3.88;;;1.40;;
59169;SDS011;52474;52.236;5.114;2022-07-29T00:58:23;3.78;;;1.50;;
59169;SDS011;52474;52.236;5.114;2022-07-29T01:00:50;3.65;;;1.63;;
59169;SDS011;52474;52.236;5.114;2022-07-29T01:03:15;3.50;;;1.45;;
59169;SDS011;52474;52.236;5.114;2022-07-29T01:05:42;4.03;;;1.35;;
59169;SDS011;52474;52.236;5.114;2022-07-29T01:08:10;4.82;;;1.60;;
59169;SDS011;52474;52.236;5.114;2022-07-29T01:10:37;3.38;;;1.40;;
59169;SDS011;52474;52.236;5.114;2022-07-29T01:13:04;4.15;;;1.55;;
59169;SDS011;52474;52.236;5.114;2022-07-29T01:15:30;4.00;;;1.55;;
59169;SDS011;52474;52.236;5.114;2022-07-29T01:26:31;4.32;;;1.80;;
59169;SDS011;52474;52.236;5.114;2022-07-29T01:34:29;2.47;;;1.50;;
59169;SDS011;52474;52.236;5.114;2022-07-29T01:37:04;4.07;;;1.40;;
59169;SDS011;52474;52.236;5.114;2022-07-29T01:39:37;3.40;;;1.60;;
59169;SDS011;52474;52.236;5.114;2022-07-29T01:45:03;4.03;;;1.55;;
59169;SDS011;52474;52.236;5.114;2022-07-29T01:47:40;3.10;;;1.60;;
59169;SDS011;52474;52.236;5.114;2022-07-29T01:50:11;3.75;;;1.83;;
59169;SDS011;52474;52.236;5.114;2022-07-29T01:55:19;3.05;;;1.75;;
59169;SDS011;52474;52.236;5.114;2022-07-29T01:57:48;3.38;;;1.90;;
59169;SDS011;52474;52.236;5.114;2022-07-29T02:00:15;5.20;;;2.20;;
59169;SDS011;52474;52.236;5.114;2022-07-29T02:02:42;4.80;;;1.60;;
59169;SDS011;52474;52.236;5.114;2022-07-29T02:05:13;3.22;;;1.70;;
59169;SDS011;52474;52.236;5.114;2022-07-29T02:07:41;2.55;;;1.60;;
59169;SDS011;52474;52.236;5.114;2022-07-29T02:10:08;4.80;;;1.90;;
59169;SDS011;52474;52.236;5.114;2022-07-29T02:12:36;2.72;;;1.67;;
59169;SDS011;52474;52.236;5.114;2022-07-29T02:15:04;3.33;;;1.80;;
59169;SDS011;52474;52.236;5.114;2022-07-29T02:17:54;3.67;;;1.85;;
59169;SDS011;52474;52.236;5.114;2022-07-29T02:20:20;3.22;;;1.70;;
59169;SDS011;52474;52.236;5.114;2022-07-29T02:22:50;3.25;;;1.60;;
59169;SDS011;52474;52.236;5.114;2022-07-29T02:25:17;5.93;;;2.30;;
59169;SDS011;52474;52.236;5.114;2022-07-29T02:27:43;3.47;;;2.03;;
59169;SDS011;52474;52.236;5.114;2022-07-29T02:30:10;2.83;;;1.92;;
59169;SDS011;52474;52.236;5.114;2022-07-29T02:32:38;3.30;;;2.03;;
59169;SDS011;52474;52.236;5.114;2022-07-29T02:35:05;4.05;;;1.95;;
59169;SDS011;52474;52.236;5.114;2022-07-29T02:37:33;4.70;;;1.83;;
59169;SDS011;52474;52.236;5.114;2022-07-29T02:40:00;4.97;;;1.90;;
59169;SDS011;52474;52.236;5.114;2022-07-29T02:42:27;4.57;;;2.08;;
59169;SDS011;52474;52.236;5.114;2022-07-29T02:44:54;3.13;;;1.98;;
59169;SDS011;52474;52.236;5.114;2022-07-29T02:47:21;2.47;;;1.85;;
59169;SDS011;52474;52.236;5.114;2022-07-29T02:53:05;3.78;;;2.08;;
59169;SDS011;52474;52.236;5.114;2022-07-29T02:55:39;4.00;;;1.85;;
59169;SDS011;52474;52.236;5.114;2022-07-29T02:58:13;4.78;;;2.05;;
59169;SDS011;52474;52.236;5.114;2022-07-29T03:00:47;3.75;;;1.90;;
59169;SDS011;52474;52.236;5.114;2022-07-29T03:03:17;8.95;;;2.50;;
59169;SDS011;52474;52.236;5.114;2022-07-29T03:05:44;3.15;;;2.20;;
59169;SDS011;52474;52.236;5.114;2022-07-29T03:08:11;3.35;;;1.90;;
59169;SDS011;52474;52.236;5.114;2022-07-29T03:10:39;5.03;;;2.22;;
59169;SDS011;52474;52.236;5.114;2022-07-29T03:13:07;3.65;;;2.05;;
59169;SDS011;52474;52.236;5.114;2022-07-29T03:15:35;11.77;;;2.30;;
59169;SDS011;52474;52.236;5.114;2022-07-29T03:18:02;4.78;;;2.00;;
59169;SDS011;52474;52.236;5.114;2022-07-29T03:20:29;2.47;;;2.05;;
59169;SDS011;52474;52.236;5.114;2022-07-29T03:22:54;5.32;;;2.20;;
59169;SDS011;52474;52.236;5.114;2022-07-29T03:25:20;4.25;;;2.20;;
59169;SDS011;52474;52.236;5.114;2022-07-29T03:27:46;4.57;;;2.20;;
59169;SDS011;52474;52.236;5.114;2022-07-29T03:30:13;4.43;;;2.15;;
59169;SDS011;52474;52.236;5.114;2022-07-29T03:32:40;2.75;;;2.05;;
59169;SDS011;52474;52.236;5.114;2022-07-29T03:35:06;4.22;;;2.17;;
59169;SDS011;52474;52.236;5.114;2022-07-29T03:37:33;2.90;;;2.10;;
59169;SDS011;52474;52.236;5.114;2022-07-29T03:39:59;5.88;;;2.40;;
59169;SDS011;52474;52.236;5.114;2022-07-29T03:42:28;4.57;;;2.10;;
59169;SDS011;52474;52.236;5.114;2022-07-29T03:44:58;2.67;;;1.90;;
59169;SDS011;52474;52.236;5.114;2022-07-29T03:47:28;2.70;;;2.00;;
59169;SDS011;52474;52.236;5.114;2022-07-29T03:49:59;3.55;;;1.88;;
59169;SDS011;52474;52.236;5.114;2022-07-29T03:52:27;5.85;;;2.13;;
59169;SDS011;52474;52.236;5.114;2022-07-29T03:54:53;4.05;;;2.17;;
59169;SDS011;52474;52.236;5.114;2022-07-29T03:57:20;4.05;;;1.88;;
59169;SDS011;52474;52.236;5.114;2022-07-29T03:59:50;3.70;;;2.15;;
59169;SDS011;52474;52.236;5.114;2022-07-29T04:02:17;3.30;;;2.03;;
59169;SDS011;52474;52.236;5.114;2022-07-29T04:04:43;3.60;;;2.15;;
59169;SDS011;52474;52.236;5.114;2022-07-29T04:07:11;8.63;;;4.90;;
59169;SDS011;52474;52.236;5.114;2022-07-29T04:09:37;5.97;;;3.63;;
59169;SDS011;52474;52.236;5.114;2022-07-29T04:12:03;5.32;;;2.13;;
59169;SDS011;52474;52.236;5.114;2022-07-29T04:14:30;3.70;;;1.95;;
59169;SDS011;52474;52.236;5.114;2022-07-29T04:16:57;5.43;;;2.35;;
59169;SDS011;52474;52.236;5.114;2022-07-29T04:19:23;2.53;;;2.10;;
59169;SDS011;52474;52.236;5.114;2022-07-29T04:21:48;5.07;;;2.15;;
59169;SDS011;52474;52.236;5.114;2022-07-29T04:24:14;4.25;;;2.08;;
59169;SDS011;52474;52.236;5.114;2022-07-29T04:26:40;3.47;;;2.00;;
59169;SDS011;52474;52.236;5.114;2022-07-29T04:29:05;3.22;;;2.03;;
59169;SDS011;52474;52.236;5.114;2022-07-29T04:31:31;2.63;;;2.00;;
59169;SDS011;52474;52.236;5.114;2022-07-29T04:33:57;5.18;;;2.10;;
59169;SDS011;52474;52.236;5.114;2022-07-29T04:36:22;3.85;;;1.98;;
59169;SDS011;52474;52.236;5.114;2022-07-29T04:38:48;3.63;;;2.00;;
59169;SDS011;52474;52.236;5.114;2022-07-29T04:41:14;2.63;;;2.05;;
59169;SDS011;52474;52.236;5.114;2022-07-29T04:43:39;3.83;;;2.15;;
59169;SDS011;52474;52.236;5.114;2022-07-29T04:46:05;3.65;;;2.25;;
59169;SDS011;52474;52.236;5.114;2022-07-29T04:48:31;4.75;;;2.05;;
59169;SDS011;52474;52.236;5.114;2022-07-29T04:50:57;6.40;;;2.10;;
59169;SDS011;52474;52.236;5.114;2022-07-29T04:53:23;4.00;;;2.10;;
59169;SDS011;52474;52.236;5.114;2022-07-29T04:55:48;4.50;;;2.40;;
59169;SDS011;52474;52.236;5.114;2022-07-29T04:58:14;3.03;;;2.10;;
59169;SDS011;52474;52.236;5.114;2022-07-29T05:00:40;6.47;;;2.17;;
59169;SDS011;52474;52.236;5.114;2022-07-29T05:03:06;3.60;;;2.00;;
59169;SDS011;52474;52.236;5.114;2022-07-29T05:05:31;4.55;;;2.30;;
59169;SDS011;52474;52.236;5.114;2022-07-29T05:07:57;3.00;;;2.22;;
59169;SDS011;52474;52.236;5.114;2022-07-29T05:10:24;4.05;;;1.80;;
59169;SDS011;52474;52.236;5.114;2022-07-29T05:12:49;6.15;;;2.60;;
59169;SDS011;52474;52.236;5.114;2022-07-29T05:15:15;5.72;;;3.40;;
59169;SDS011;52474;52.236;5.114;2022-07-29T05:17:43;4.97;;;2.50;;
59169;SDS011;52474;52.236;5.114;2022-07-29T05:20:09;2.90;;;2.30;;
59169;SDS011;52474;52.236;5.114;2022-07-29T05:22:34;3.35;;;2.22;;
59169;SDS011;52474;52.236;5.114;2022-07-29T05:25:00;4.93;;;2.45;;
59169;SDS011;52474;52.236;5.114;2022-07-29T05:27:26;2.47;;;2.00;;
59169;SDS011;52474;52.236;5.114;2022-07-29T05:29:51;3.25;;;2.03;;
59169;SDS011;52474;52.236;5.114;2022-07-29T05:32:17;3.92;;;2.30;;
59169;SDS011;52474;52.236;5.114;2022-07-29T05:34:43;4.00;;;2.00;;
59169;SDS011;52474;52.236;5.114;2022-07-29T05:37:09;6.30;;;2.53;;
59169;SDS011;52474;52.236;5.114;2022-07-29T05:39:34;2.63;;;1.90;;
59169;SDS011;52474;52.236;5.114;2022-07-29T05:42:00;2.70;;;2.20;;
59169;SDS011;52474;52.236;5.114;2022-07-29T05:44:26;6.18;;;1.98;;
59169;SDS011;52474;52.236;5.114;2022-07-29T05:46:52;3.85;;;2.15;;
59169;SDS011;52474;52.236;5.114;2022-07-29T05:49:17;5.55;;;2.45;;
59169;SDS011;52474;52.236;5.114;2022-07-29T05:51:43;4.18;;;2.03;;
59169;SDS011;52474;52.236;5.114;2022-07-29T05:54:09;6.47;;;2.38;;
59169;SDS011;52474;52.236;5.114;2022-07-29T05:56:36;4.97;;;2.20;;
59169;SDS011;52474;52.236;5.114;2022-07-29T05:59:02;4.28;;;2.90;;
59169;SDS011;52474;52.236;5.114;2022-07-29T06:01:28;8.95;;;2.30;;
59169;SDS011;52474;52.236;5.114;2022-07-29T06:03:54;3.00;;;2.03;;
59169;SDS011;52474;52.236;5.114;2022-07-29T06:06:19;5.05;;;2.20;;
59169;SDS011;52474;52.236;5.114;2022-07-29T06:08:45;4.07;;;1.98;;
59169;SDS011;52474;52.236;5.114;2022-07-29T06:11:11;6.60;;;2.20;;
59169;SDS011;52474;52.236;5.114;2022-07-29T06:13:37;4.00;;;2.50;;
59169;SDS011;52474;52.236;5.114;2022-07-29T06:16:02;5.32;;;2.05;;
59169;SDS011;52474;52.236;5.114;2022-07-29T06:18:29;3.83;;;2.00;;
59169;SDS011;52474;52.236;5.114;2022-07-29T06:20:54;4.65;;;2.20;;
59169;SDS011;52474;52.236;5.114;2022-07-29T06:23:20;5.18;;;2.03;;
59169;SDS011;52474;52.236;5.114;2022-07-29T06:25:46;7.38;;;4.35;;
59169;SDS011;52474;52.236;5.114;2022-07-29T06:28:12;4.35;;;2.63;;
59169;SDS011;52474;52.236;5.114;2022-07-29T06:30:38;2.67;;;2.00;;
59169;SDS011;52474;52.236;5.114;2022-07-29T06:33:05;3.55;;;1.90;;
59169;SDS011;52474;52.236;5.114;2022-07-29T06:35:32;5.20;;;2.08;;
59169;SDS011;52474;52.236;5.114;2022-07-29T06:38:00;3.03;;;1.90;;
59169;SDS011;52474;52.236;5.114;2022-07-29T06:40:26;3.38;;;2.30;;
59169;SDS011;52474;52.236;5.114;2022-07-29T06:43:11;3.15;;;2.00;;
59169;SDS011;52474;52.236;5.114;2022-07-29T06:45:36;5.45;;;2.45;;
59169;SDS011;52474;52.236;5.114;2022-07-29T06:48:03;3.30;;;2.40;;
59169;SDS011;52474;52.236;5.114;2022-07-29T06:50:29;2.60;;;1.98;;
59169;SDS011;52474;52.236;5.114;2022-07-29T06:52:55;3.33;;;2.10;;
59169;SDS011;52474;52.236;5.114;2022-07-29T06:55:21;5.40;;;2.10;;
59169;SDS011;52474;52.236;5.114;2022-07-29T06:57:46;3.25;;;2.03;;
59169;SDS011;52474;52.236;5.114;2022-07-29T07:00:12;4.20;;;2.20;;
59169;SDS011;52474;52.236;5.114;2022-07-29T07:02:38;6.05;;;2.55;;
59169;SDS011;52474;52.236;5.114;2022-07-29T07:05:04;8.20;;;2.28;;
59169;SDS011;52474;52.236;5.114;2022-07-29T07:07:30;2.25;;;2.05;;
59169;SDS011;52474;52.236;5.114;2022-07-29T07:09:56;3.33;;;1.90;;
59169;SDS011;52474;52.236;5.114;2022-07-29T07:12:22;2.80;;;1.90;;
59169;SDS011;52474;52.236;5.114;2022-07-29T07:14:48;3.97;;;2.30;;
59169;SDS011;52474;52.236;5.114;2022-07-29T07:17:13;3.55;;;2.45;;
59169;SDS011;52474;52.236;5.114;2022-07-29T07:19:39;4.68;;;2.00;;
59169;SDS011;52474;52.236;5.114;2022-07-29T07:22:05;4.15;;;2.00;;
59169;SDS011;52474;52.236;5.114;2022-07-29T07:24:30;4.05;;;1.90;;
59169;SDS011;52474;52.236;5.114;2022-07-29T07:26:56;3.92;;;1.85;;
59169;SDS011;52474;52.236;5.114;2022-07-29T07:29:22;4.95;;;2.42;;
59169;SDS011;52474;52.236;5.114;2022-07-29T07:31:48;3.20;;;1.85;;
59169;SDS011;52474;52.236;5.114;2022-07-29T07:34:13;4.47;;;1.98;;
59169;SDS011;52474;52.236;5.114;2022-07-29T07:36:39;5.15;;;1.90;;
59169;SDS011;52474;52.236;5.114;2022-07-29T07:39:05;4.38;;;1.88;;
59169;SDS011;52474;52.236;5.114;2022-07-29T07:41:31;2.72;;;1.90;;
59169;SDS011;52474;52.236;5.114;2022-07-29T07:43:57;3.28;;;2.00;;
59169;SDS011;52474;52.236;5.114;2022-07-29T07:46:22;2.40;;;1.70;;
59169;SDS011;52474;52.236;5.114;2022-07-29T07:48:48;4.57;;;1.95;;
59169;SDS011;52474;52.236;5.114;2022-07-29T07:51:14;2.65;;;1.98;;
59169;SDS011;52474;52.236;5.114;2022-07-29T07:53:39;3.63;;;2.10;;
59169;SDS011;52474;52.236;5.114;2022-07-29T07:56:05;7.78;;;2.30;;
59169;SDS011;52474;52.236;5.114;2022-07-29T07:58:31;4.65;;;2.08;;
59169;SDS011;52474;52.236;5.114;2022-07-29T08:00:57;8.35;;;2.10;;
59169;SDS011;52474;52.236;5.114;2022-07-29T08:03:23;6.20;;;2.10;;
59169;SDS011;52474;52.236;5.114;2022-07-29T08:05:49;6.10;;;2.22;;
59169;SDS011;52474;52.236;5.114;2022-07-29T08:08:17;2.72;;;1.90;;
59169;SDS011;52474;52.236;5.114;2022-07-29T08:10:43;2.28;;;1.70;;
59169;SDS011;52474;52.236;5.114;2022-07-29T08:13:18;3.35;;;1.85;;
59169;SDS011;52474;52.236;5.114;2022-07-29T08:15:45;5.10;;;1.98;;
59169;SDS011;52474;52.236;5.114;2022-07-29T08:18:12;4.03;;;1.95;;
59169;SDS011;52474;52.236;5.114;2022-07-29T08:20:38;5.20;;;2.33;;
59169;SDS011;52474;52.236;5.114;2022-07-29T08:23:07;3.83;;;2.50;;
59169;SDS011;52474;52.236;5.114;2022-07-29T08:25:36;3.72;;;2.35;;
59169;SDS011;52474;52.236;5.114;2022-07-29T08:30:31;6.78;;;2.50;;
59169;SDS011;52474;52.236;5.114;2022-07-29T08:32:57;4.82;;;2.38;;
59169;SDS011;52474;52.236;5.114;2022-07-29T08:35:24;5.47;;;2.58;;
59169;SDS011;52474;52.236;5.114;2022-07-29T08:37:50;4.35;;;2.20;;
59169;SDS011;52474;52.236;5.114;2022-07-29T08:40:17;4.57;;;2.22;;
59169;SDS011;52474;52.236;5.114;2022-07-29T08:42:42;3.72;;;2.40;;
59169;SDS011;52474;52.236;5.114;2022-07-29T08:45:08;4.68;;;2.33;;
59169;SDS011;52474;52.236;5.114;2022-07-29T08:47:34;4.32;;;2.78;;
59169;SDS011;52474;52.236;5.114;2022-07-29T08:50:04;4.28;;;2.45;;
59169;SDS011;52474;52.236;5.114;2022-07-29T08:52:31;5.25;;;2.88;;
59169;SDS011;52474;52.236;5.114;2022-07-29T08:55:01;10.10;;;2.72;;
59169;SDS011;52474;52.236;5.114;2022-07-29T08:57:27;4.18;;;2.70;;
59169;SDS011;52474;52.236;5.114;2022-07-29T08:59:54;3.50;;;2.80;;
59169;SDS011;52474;52.236;5.114;2022-07-29T09:02:22;4.25;;;2.63;;
59169;SDS011;52474;52.236;5.114;2022-07-29T09:04:51;4.18;;;2.60;;
59169;SDS011;52474;52.236;5.114;2022-07-29T09:07:18;5.45;;;2.90;;
59169;SDS011;52474;52.236;5.114;2022-07-29T09:09:44;7.13;;;2.60;;
59169;SDS011;52474;52.236;5.114;2022-07-29T09:12:10;5.50;;;2.63;;
59169;SDS011;52474;52.236;5.114;2022-07-29T09:14:39;4.60;;;2.85;;
59169;SDS011;52474;52.236;5.114;2022-07-29T09:17:05;5.97;;;2.78;;
59169;SDS011;52474;52.236;5.114;2022-07-29T09:19:33;6.15;;;3.17;;
59169;SDS011;52474;52.236;5.114;2022-07-29T09:22:01;3.72;;;3.10;;
59169;SDS011;52474;52.236;5.114;2022-07-29T09:27:10;4.47;;;2.88;;
59169;SDS011;52474;52.236;5.114;2022-07-29T09:29:44;3.95;;;2.40;;
59169;SDS011;52474;52.236;5.114;2022-07-29T09:32:10;5.18;;;2.72;;
59169;SDS011;52474;52.236;5.114;2022-07-29T09:34:36;4.28;;;3.20;;
59169;SDS011;52474;52.236;5.114;2022-07-29T09:37:02;7.25;;;2.85;;
59169;SDS011;52474;52.236;5.114;2022-07-29T09:39:37;3.25;;;2.60;;
59169;SDS011;52474;52.236;5.114;2022-07-29T09:42:11;7.38;;;3.13;;
59169;SDS011;52474;52.236;5.114;2022-07-29T09:44:41;4.82;;;2.75;;
59169;SDS011;52474;52.236;5.114;2022-07-29T09:47:16;4.82;;;2.60;;
59169;SDS011;52474;52.236;5.114;2022-07-29T09:49:55;4.00;;;2.33;;
59169;SDS011;52474;52.236;5.114;2022-07-29T09:52:23;6.15;;;2.78;;
59169;SDS011;52474;52.236;5.114;2022-07-29T09:54:50;3.65;;;2.35;;
59169;SDS011;52474;52.236;5.114;2022-07-29T09:57:26;3.90;;;2.72;;
59169;SDS011;52474;52.236;5.114;2022-07-29T09:59:59;4.47;;;2.75;;
59169;SDS011;52474;52.236;5.114;2022-07-29T10:02:37;5.68;;;2.60;;
59169;SDS011;52474;52.236;5.114;2022-07-29T10:05:05;4.70;;;2.80;;
59169;SDS011;52474;52.236;5.114;2022-07-29T10:07:45;6.80;;;2.70;;
59169;SDS011;52474;52.236;5.114;2022-07-29T10:10:10;4.50;;;2.75;;
59169;SDS011;52474;52.236;5.114;2022-07-29T10:13:05;5.78;;;3.10;;
59169;SDS011;52474;52.236;5.114;2022-07-29T10:15:40;6.00;;;2.90;;
59169;SDS011;52474;52.236;5.114;2022-07-29T10:18:09;4.03;;;2.97;;
59169;SDS011;52474;52.236;5.114;2022-07-29T10:20:37;3.90;;;2.25;;
59169;SDS011;52474;52.236;5.114;2022-07-29T10:23:04;5.68;;;2.78;;
59169;SDS011;52474;52.236;5.114;2022-07-29T10:25:30;7.85;;;2.88;;
59169;SDS011;52474;52.236;5.114;2022-07-29T10:27:56;3.13;;;2.50;;
59169;SDS011;52474;52.236;5.114;2022-07-29T10:30:23;4.30;;;2.45;;
59169;SDS011;52474;52.236;5.114;2022-07-29T10:43:57;5.30;;;3.00;;
59169;SDS011;52474;52.236;5.114;2022-07-29T10:46:25;4.18;;;3.15;;
59169;SDS011;52474;52.236;5.114;2022-07-29T10:49:05;3.90;;;2.92;;
59169;SDS011;52474;52.236;5.114;2022-07-29T10:57:15;6.35;;;3.30;;
59169;SDS011;52474;52.236;5.114;2022-07-29T10:59:42;4.20;;;3.17;;
59169;SDS011;52474;52.236;5.114;2022-07-29T11:04:58;5.40;;;2.92;;
59169;SDS011;52474;52.236;5.114;2022-07-29T11:07:25;6.15;;;4.03;;
59169;SDS011;52474;52.236;5.114;2022-07-29T11:15:02;6.93;;;3.47;;
59169;SDS011;52474;52.236;5.114;2022-07-29T11:20:36;4.93;;;2.80;;
59169;SDS011;52474;52.236;5.114;2022-07-29T11:28:36;10.65;;;3.75;;
59169;SDS011;52474;52.236;5.114;2022-07-29T11:31:12;6.78;;;2.70;;
59169;SDS011;52474;52.236;5.114;2022-07-29T11:33:40;4.60;;;2.72;;
59169;SDS011;52474;52.236;5.114;2022-07-29T11:36:07;3.15;;;2.75;;
59169;SDS011;52474;52.236;5.114;2022-07-29T11:38:35;5.07;;;2.70;;
59169;SDS011;52474;52.236;5.114;2022-07-29T11:49:09;5.97;;;2.92;;
59169;SDS011;52474;52.236;5.114;2022-07-29T11:51:36;4.32;;;2.65;;
59169;SDS011;52474;52.236;5.114;2022-07-29T11:54:03;5.07;;;3.05;;
59169;SDS011;52474;52.236;5.114;2022-07-29T11:56:33;6.40;;;2.92;;
59169;SDS011;52474;52.236;5.114;2022-07-29T11:59:04;3.60;;;2.35;;
59169;SDS011;52474;52.236;5.114;2022-07-29T12:01:31;5.50;;;3.60;;
59169;SDS011;52474;52.236;5.114;2022-07-29T12:04:06;4.82;;;2.75;;
59169;SDS011;52474;52.236;5.114;2022-07-29T12:06:36;7.05;;;3.20;;
59169;SDS011;52474;52.236;5.114;2022-07-29T12:11:34;5.00;;;2.80;;
59169;SDS011;52474;52.236;5.114;2022-07-29T12:14:00;3.28;;;2.28;;
59169;SDS011;52474;52.236;5.114;2022-07-29T12:16:35;4.07;;;2.90;;
59169;SDS011;52474;52.236;5.114;2022-07-29T12:19:02;6.20;;;2.80;;
59169;SDS011;52474;52.236;5.114;2022-07-29T12:21:29;4.63;;;2.75;;
59169;SDS011;52474;52.236;5.114;2022-07-29T12:24:08;5.78;;;2.25;;
59169;SDS011;52474;52.236;5.114;2022-07-29T12:26:34;5.15;;;2.20;;
59169;SDS011;52474;52.236;5.114;2022-07-29T12:29:00;4.07;;;2.30;;
59169;SDS011;52474;52.236;5.114;2022-07-29T12:31:25;6.45;;;2.35;;
59169;SDS011;52474;52.236;5.114;2022-07-29T12:33:52;4.40;;;2.10;;
59169;SDS011;52474;52.236;5.114;2022-07-29T12:36:19;4.47;;;2.47;;
59169;SDS011;52474;52.236;5.114;2022-07-29T12:38:45;5.22;;;2.53;;
59169;SDS011;52474;52.236;5.114;2022-07-29T12:41:11;4.05;;;2.60;;
59169;SDS011;52474;52.236;5.114;2022-07-29T12:43:37;3.97;;;2.53;;
59169;SDS011;52474;52.236;5.114;2022-07-29T12:46:13;4.90;;;2.38;;
59169;SDS011;52474;52.236;5.114;2022-07-29T12:48:40;7.05;;;2.30;;
59169;SDS011;52474;52.236;5.114;2022-07-29T12:51:07;5.25;;;2.60;;
59169;SDS011;52474;52.236;5.114;2022-07-29T12:53:34;5.05;;;2.40;;
59169;SDS011;52474;52.236;5.114;2022-07-29T12:56:01;7.07;;;2.83;;
59169;SDS011;52474;52.236;5.114;2022-07-29T12:58:28;5.55;;;2.63;;
59169;SDS011;52474;52.236;5.114;2022-07-29T13:00:59;4.75;;;2.38;;
59169;SDS011;52474;52.236;5.114;2022-07-29T13:09:05;6.07;;;2.80;;
59169;SDS011;52474;52.236;5.114;2022-07-29T13:11:34;5.82;;;2.40;;
59169;SDS011;52474;52.236;5.114;2022-07-29T13:14:00;8.23;;;2.80;;
59169;SDS011;52474;52.236;5.114;2022-07-29T13:16:26;6.80;;;2.47;;
59169;SDS011;52474;52.236;5.114;2022-07-29T13:19:05;5.97;;;2.60;;
59169;SDS011;52474;52.236;5.114;2022-07-29T13:21:38;5.30;;;2.80;;
59169;SDS011;52474;52.236;5.114;2022-07-29T13:24:05;5.80;;;2.67;;
59169;SDS011;52474;52.236;5.114;2022-07-29T13:26:32;3.42;;;2.50;;
59169;SDS011;52474;52.236;5.114;2022-07-29T13:28:58;4.97;;;2.42;;
59169;SDS011;52474;52.236;5.114;2022-07-29T13:31:23;3.45;;;2.15;;
59169;SDS011;52474;52.236;5.114;2022-07-29T13:33:49;6.97;;;2.63;;
59169;SDS011;52474;52.236;5.114;2022-07-29T13:36:15;4.03;;;2.50;;
59169;SDS011;52474;52.236;5.114;2022-07-29T13:38:41;4.97;;;2.28;;
59169;SDS011;52474;52.236;5.114;2022-07-29T13:41:07;4.25;;;1.80;;
59169;SDS011;52474;52.236;5.114;2022-07-29T13:43:33;6.95;;;2.40;;
59169;SDS011;52474;52.236;5.114;2022-07-29T13:45:58;4.22;;;2.15;;
59169;SDS011;52474;52.236;5.114;2022-07-29T13:48:24;11.35;;;2.80;;
59169;SDS011;52474;52.236;5.114;2022-07-29T13:50:50;6.53;;;2.20;;
59169;SDS011;52474;52.236;5.114;2022-07-29T13:53:16;6.85;;;2.67;;
59169;SDS011;52474;52.236;5.114;2022-07-29T13:55:41;4.93;;;2.42;;
59169;SDS011;52474;52.236;5.114;2022-07-29T13:58:07;4.07;;;1.98;;
59169;SDS011;52474;52.236;5.114;2022-07-29T14:00:33;6.80;;;2.40;;
59169;SDS011;52474;52.236;5.114;2022-07-29T14:02:59;5.35;;;2.28;;
59169;SDS011;52474;52.236;5.114;2022-07-29T14:05:25;4.97;;;2.10;;
59169;SDS011;52474;52.236;5.114;2022-07-29T14:07:50;7.28;;;2.60;;
59169;SDS011;52474;52.236;5.114;2022-07-29T14:10:16;2.72;;;2.10;;
59169;SDS011;52474;52.236;5.114;2022-07-29T14:12:42;6.30;;;1.90;;
59169;SDS011;52474;52.236;5.114;2022-07-29T14:15:07;4.03;;;1.85;;
59169;SDS011;52474;52.236;5.114;2022-07-29T14:17:34;4.88;;;2.53;;
59169;SDS011;52474;52.236;5.114;2022-07-29T14:20:00;3.38;;;1.65;;
59169;SDS011;52474;52.236;5.114;2022-07-29T14:22:26;3.42;;;1.75;;
59169;SDS011;52474;52.236;5.114;2022-07-29T14:24:51;3.72;;;1.88;;
59169;SDS011;52474;52.236;5.114;2022-07-29T14:27:17;5.30;;;1.80;;
59169;SDS011;52474;52.236;5.114;2022-07-29T14:29:43;5.90;;;1.88;;
59169;SDS011;52474;52.236;5.114;2022-07-29T14:32:09;3.58;;;1.83;;
59169;SDS011;52474;52.236;5.114;2022-07-29T14:34:36;7.15;;;2.13;;
59169;SDS011;52474;52.236;5.114;2022-07-29T14:37:02;5.78;;;1.95;;
59169;SDS011;52474;52.236;5.114;2022-07-29T14:39:30;5.75;;;1.95;;
59169;SDS011;52474;52.236;5.114;2022-07-29T14:41:56;5.85;;;1.85;;
59169;SDS011;52474;52.236;5.114;2022-07-29T14:44:22;5.18;;;2.20;;
59169;SDS011;52474;52.236;5.114;2022-07-29T14:46:48;3.75;;;1.90;;
59169;SDS011;52474;52.236;5.114;2022-07-29T14:49:14;4.13;;;2.17;;
59169;SDS011;52474;52.236;5.114;2022-07-29T14:51:40;6.65;;;2.50;;
59169;SDS011;52474;52.236;5.114;2022-07-29T14:54:06;3.22;;;2.03;;
59169;SDS011;52474;52.236;5.114;2022-07-29T14:56:32;5.47;;;2.20;;
59169;SDS011;52474;52.236;5.114;2022-07-29T14:58:57;5.75;;;2.00;;
59169;SDS011;52474;52.236;5.114;2022-07-29T15:01:23;5.22;;;2.10;;
59169;SDS011;52474;52.236;5.114;2022-07-29T15:03:49;5.43;;;2.05;;
59169;SDS011;52474;52.236;5.114;2022-07-29T15:06:15;4.18;;;1.70;;
59169;SDS011;52474;52.236;5.114;2022-07-29T15:08:41;3.63;;;1.77;;
59169;SDS011;52474;52.236;5.114;2022-07-29T15:11:07;7.70;;;2.13;;
59169;SDS011;52474;52.236;5.114;2022-07-29T15:13:33;3.45;;;2.00;;
59169;SDS011;52474;52.236;5.114;2022-07-29T15:15:59;5.13;;;2.20;;
59169;SDS011;52474;52.236;5.114;2022-07-29T15:18:24;7.00;;;2.28;;
59169;SDS011;52474;52.236;5.114;2022-07-29T15:20:51;8.30;;;2.13;;
59169;SDS011;52474;52.236;5.114;2022-07-29T15:23:16;4.97;;;2.05;;
59169;SDS011;52474;52.236;5.114;2022-07-29T15:25:42;4.85;;;2.25;;
59169;SDS011;52474;52.236;5.114;2022-07-29T15:28:08;5.70;;;2.10;;
59169;SDS011;52474;52.236;5.114;2022-07-29T15:30:34;4.03;;;2.30;;
59169;SDS011;52474;52.236;5.114;2022-07-29T15:33:06;4.40;;;2.00;;
59169;SDS011;52474;52.236;5.114;2022-07-29T15:35:33;4.65;;;2.10;;
59169;SDS011;52474;52.236;5.114;2022-07-29T15:37:59;3.75;;;2.30;;
59169;SDS011;52474;52.236;5.114;2022-07-29T15:40:25;2.20;;;1.75;;
59169;SDS011;52474;52.236;5.114;2022-07-29T15:42:54;4.05;;;1.90;;
59169;SDS011;52474;52.236;5.114;2022-07-29T15:45:24;4.28;;;2.17;;
59169;SDS011;52474;52.236;5.114;2022-07-29T15:47:54;5.85;;;2.45;;
59169;SDS011;52474;52.236;5.114;2022-07-29T15:50:20;4.10;;;2.15;;
59169;SDS011;52474;52.236;5.114;2022-07-29T15:52:53;4.75;;;2.28;;
59169;SDS011;52474;52.236;5.114;2022-07-29T15:55:19;5.13;;;2.30;;
59169;SDS011;52474;52.236;5.114;2022-07-29T15:58:02;4.47;;;2.00;;
59169;SDS011;52474;52.236;5.114;2022-07-29T16:00:28;3.67;;;2.20;;
59169;SDS011;52474;52.236;5.114;2022-07-29T16:02:53;6.30;;;2.35;;
59169;SDS011;52474;52.236;5.114;2022-07-29T16:05:19;3.17;;;1.80;;